Hovedside
METAR-TAF:

METAR-TAF

Lufthavner :

Mariehamn lufthavn

Mariehamn, Finland

breddegrad: 60-07N, lengdegrad: 019-54E, høyde over havet: 6 m

Gjeldene værobservasjon

Denne rapporten ble laget for 10 minutter siden, klokken 17:20 UTC
Vind 4 kt fra Sørvest
Temperatur 20°C
Luftfuktighet 40%
Trykk 1027 hPa
Sikt 10 km eller mer
ingen skyer under 1500 m og ingen bygeskyer

METAR: EFMA 261720Z AUTO 22004KT CAVOK 20/06 Q1027

Tid: 20:30 (17:30 UTC)


TAF: fraværende

Værobservasjoner og værvarsel for over 4000 flyplasser (METAR- og TAF-rapporter).

Tilgjengelige stasjoner er representert av de røde og gule prikkene på kartet.

Hold musepekeren over prikken for å se navnet på stasjonen.

Klikk så for å se værobservasjoner og -varsler.

For å forandre kartet kan du klikke på den grønne knappen med svart kryss for å zoome inn, på den grønne knappen med strek for å zoome ut, eller på de grønne pilene for å se tilstøtende kart.


METAR-TAF: